sensor_id;sensor_type;location;lat;lon;timestamp;temperature;humidity
4050;DHT22;2039;50.894;6.888;2023-09-08T00:02:25;19.80;93.70
4050;DHT22;2039;50.894;6.888;2023-09-08T00:04:52;19.70;95.00
4050;DHT22;2039;50.894;6.888;2023-09-08T00:07:17;19.70;96.60
4050;DHT22;2039;50.894;6.888;2023-09-08T00:09:43;19.70;97.20
4050;DHT22;2039;50.894;6.888;2023-09-08T00:12:09;19.70;97.10
4050;DHT22;2039;50.894;6.888;2023-09-08T00:14:34;19.60;99.30
4050;DHT22;2039;50.894;6.888;2023-09-08T00:17:00;19.60;98.00
4050;DHT22;2039;50.894;6.888;2023-09-08T00:19:26;19.60;98.90
4050;DHT22;2039;50.894;6.888;2023-09-08T00:21:51;19.60;98.60
4050;DHT22;2039;50.894;6.888;2023-09-08T00:24:19;19.60;98.30
4050;DHT22;2039;50.894;6.888;2023-09-08T00:26:45;19.60;98.00
4050;DHT22;2039;50.894;6.888;2023-09-08T00:29:11;19.60;98.90
4050;DHT22;2039;50.894;6.888;2023-09-08T00:31:36;19.60;99.20
4050;DHT22;2039;50.894;6.888;2023-09-08T00:34:02;19.60;98.20
4050;DHT22;2039;50.894;6.888;2023-09-08T00:36:28;19.60;97.20
4050;DHT22;2039;50.894;6.888;2023-09-08T00:38:53;19.60;98.30
4050;DHT22;2039;50.894;6.888;2023-09-08T00:41:19;19.50;97.40
4050;DHT22;2039;50.894;6.888;2023-09-08T00:43:45;19.50;97.20
4050;DHT22;2039;50.894;6.888;2023-09-08T00:46:10;19.40;98.90
4050;DHT22;2039;50.894;6.888;2023-09-08T00:48:40;19.40;99.90
4050;DHT22;2039;50.894;6.888;2023-09-08T00:51:07;19.30;99.90
4050;DHT22;2039;50.894;6.888;2023-09-08T00:53:35;19.40;99.90
4050;DHT22;2039;50.894;6.888;2023-09-08T00:56:02;19.40;99.90
4050;DHT22;2039;50.894;6.888;2023-09-08T00:58:29;19.40;99.40
4050;DHT22;2039;50.894;6.888;2023-09-08T01:00:54;19.40;97.90
4050;DHT22;2039;50.894;6.888;2023-09-08T01:03:23;19.40;96.80
4050;DHT22;2039;50.894;6.888;2023-09-08T01:05:50;19.40;97.50
4050;DHT22;2039;50.894;6.888;2023-09-08T01:08:16;19.40;95.40
4050;DHT22;2039;50.894;6.888;2023-09-08T01:10:45;19.40;95.70
4050;DHT22;2039;50.894;6.888;2023-09-08T01:13:11;19.40;94.90
4050;DHT22;2039;50.894;6.888;2023-09-08T01:15:37;19.40;93.90
4050;DHT22;2039;50.894;6.888;2023-09-08T01:18:02;19.40;92.70
4050;DHT22;2039;50.894;6.888;2023-09-08T01:20:47;19.40;93.70
4050;DHT22;2039;50.894;6.888;2023-09-08T01:23:24;19.40;93.60
4050;DHT22;2039;50.894;6.888;2023-09-08T01:26:16;19.40;94.40
4050;DHT22;2039;50.894;6.888;2023-09-08T01:28:44;19.30;94.50
4050;DHT22;2039;50.894;6.888;2023-09-08T01:31:10;19.30;94.10
4050;DHT22;2039;50.894;6.888;2023-09-08T01:33:37;19.30;94.70
4050;DHT22;2039;50.894;6.888;2023-09-08T01:36:03;19.20;94.40
4050;DHT22;2039;50.894;6.888;2023-09-08T01:38:28;19.20;95.30
4050;DHT22;2039;50.894;6.888;2023-09-08T01:40:54;19.20;95.00
4050;DHT22;2039;50.894;6.888;2023-09-08T01:43:20;19.20;96.20
4050;DHT22;2039;50.894;6.888;2023-09-08T01:45:45;19.20;95.70
4050;DHT22;2039;50.894;6.888;2023-09-08T01:48:11;19.20;94.70
4050;DHT22;2039;50.894;6.888;2023-09-08T01:50:37;19.10;97.30
4050;DHT22;2039;50.894;6.888;2023-09-08T01:53:02;19.10;96.30
4050;DHT22;2039;50.894;6.888;2023-09-08T01:55:31;19.00;98.50
4050;DHT22;2039;50.894;6.888;2023-09-08T01:57:57;19.00;98.30
4050;DHT22;2039;50.894;6.888;2023-09-08T02:00:22;19.00;99.90
4050;DHT22;2039;50.894;6.888;2023-09-08T02:02:48;19.00;99.90
4050;DHT22;2039;50.894;6.888;2023-09-08T02:05:14;18.90;99.90
4050;DHT22;2039;50.894;6.888;2023-09-08T02:07:40;18.80;99.90
4050;DHT22;2039;50.894;6.888;2023-09-08T02:10:05;18.80;99.90
4050;DHT22;2039;50.894;6.888;2023-09-08T02:12:31;18.90;99.90
4050;DHT22;2039;50.894;6.888;2023-09-08T02:14:57;18.80;99.90
4050;DHT22;2039;50.894;6.888;2023-09-08T02:17:23;18.80;99.90
4050;DHT22;2039;50.894;6.888;2023-09-08T02:19:48;18.80;99.90
4050;DHT22;2039;50.894;6.888;2023-09-08T02:22:14;18.70;99.90
4050;DHT22;2039;50.894;6.888;2023-09-08T02:24:40;18.60;99.90
4050;DHT22;2039;50.894;6.888;2023-09-08T02:27:05;18.60;99.90
4050;DHT22;2039;50.894;6.888;2023-09-08T02:29:31;18.50;99.90
4050;DHT22;2039;50.894;6.888;2023-09-08T02:31:57;18.40;99.90
4050;DHT22;2039;50.894;6.888;2023-09-08T02:34:23;18.30;99.90
4050;DHT22;2039;50.894;6.888;2023-09-08T02:36:48;18.30;99.90
4050;DHT22;2039;50.894;6.888;2023-09-08T02:39:16;18.30;99.90
4050;DHT22;2039;50.894;6.888;2023-09-08T02:41:42;18.20;99.90
4050;DHT22;2039;50.894;6.888;2023-09-08T02:44:07;18.30;99.90
4050;DHT22;2039;50.894;6.888;2023-09-08T02:46:33;18.20;99.90
4050;DHT22;2039;50.894;6.888;2023-09-08T02:49:02;18.20;99.90
4050;DHT22;2039;50.894;6.888;2023-09-08T02:51:27;18.20;99.90
4050;DHT22;2039;50.894;6.888;2023-09-08T02:53:53;18.20;99.90
4050;DHT22;2039;50.894;6.888;2023-09-08T02:56:19;18.20;99.90
4050;DHT22;2039;50.894;6.888;2023-09-08T02:58:44;18.30;99.90
4050;DHT22;2039;50.894;6.888;2023-09-08T03:01:16;18.20;99.90
4050;DHT22;2039;50.894;6.888;2023-09-08T03:03:46;18.20;99.90
4050;DHT22;2039;50.894;6.888;2023-09-08T03:06:14;18.30;99.90
4050;DHT22;2039;50.894;6.888;2023-09-08T03:08:40;18.20;99.90
4050;DHT22;2039;50.894;6.888;2023-09-08T03:11:07;18.20;99.90
4050;DHT22;2039;50.894;6.888;2023-09-08T03:13:34;18.30;99.90
4050;DHT22;2039;50.894;6.888;2023-09-08T03:16:04;18.30;99.90
4050;DHT22;2039;50.894;6.888;2023-09-08T03:18:31;18.20;99.90
4050;DHT22;2039;50.894;6.888;2023-09-08T03:20:58;18.20;99.90
4050;DHT22;2039;50.894;6.888;2023-09-08T03:23:24;18.10;99.90
4050;DHT22;2039;50.894;6.888;2023-09-08T03:25:50;18.00;99.90
4050;DHT22;2039;50.894;6.888;2023-09-08T03:28:15;17.90;99.90
4050;DHT22;2039;50.894;6.888;2023-09-08T03:30:41;17.80;99.90
4050;DHT22;2039;50.894;6.888;2023-09-08T03:33:07;17.80;99.90
4050;DHT22;2039;50.894;6.888;2023-09-08T03:35:32;17.70;99.90
4050;DHT22;2039;50.894;6.888;2023-09-08T03:37:58;17.70;99.90
4050;DHT22;2039;50.894;6.888;2023-09-08T03:40:24;17.70;99.90
4050;DHT22;2039;50.894;6.888;2023-09-08T03:42:50;17.60;99.90
4050;DHT22;2039;50.894;6.888;2023-09-08T03:45:15;17.60;99.90
4050;DHT22;2039;50.894;6.888;2023-09-08T03:47:41;17.70;99.90
4050;DHT22;2039;50.894;6.888;2023-09-08T03:50:07;17.70;99.90
4050;DHT22;2039;50.894;6.888;2023-09-08T03:52:33;17.70;99.90
4050;DHT22;2039;50.894;6.888;2023-09-08T03:54:59;17.70;99.90
4050;DHT22;2039;50.894;6.888;2023-09-08T03:57:24;17.60;99.90
4050;DHT22;2039;50.894;6.888;2023-09-08T03:59:50;17.60;99.90
4050;DHT22;2039;50.894;6.888;2023-09-08T04:02:15;17.60;99.90
4050;DHT22;2039;50.894;6.888;2023-09-08T04:07:18;17.50;99.90
4050;DHT22;2039;50.894;6.888;2023-09-08T04:09:43;17.50;99.90
4050;DHT22;2039;50.894;6.888;2023-09-08T04:12:09;17.50;99.90
4050;DHT22;2039;50.894;6.888;2023-09-08T04:14:36;17.50;99.90
4050;DHT22;2039;50.894;6.888;2023-09-08T04:17:02;17.50;99.90
4050;DHT22;2039;50.894;6.888;2023-09-08T04:19:27;17.60;99.90
4050;DHT22;2039;50.894;6.888;2023-09-08T04:21:53;17.60;99.90
4050;DHT22;2039;50.894;6.888;2023-09-08T04:24:19;17.60;99.90
4050;DHT22;2039;50.894;6.888;2023-09-08T04:26:45;17.60;99.90
4050;DHT22;2039;50.894;6.888;2023-09-08T04:29:11;17.70;99.90
4050;DHT22;2039;50.894;6.888;2023-09-08T04:31:36;17.70;99.90
4050;DHT22;2039;50.894;6.888;2023-09-08T04:34:02;17.70;99.90
4050;DHT22;2039;50.894;6.888;2023-09-08T04:36:28;17.60;99.90
4050;DHT22;2039;50.894;6.888;2023-09-08T04:38:56;17.60;99.90
4050;DHT22;2039;50.894;6.888;2023-09-08T04:41:21;17.50;99.90
4050;DHT22;2039;50.894;6.888;2023-09-08T04:43:47;17.60;99.90
4050;DHT22;2039;50.894;6.888;2023-09-08T04:46:15;17.60;99.90
4050;DHT22;2039;50.894;6.888;2023-09-08T04:48:41;17.60;99.90
4050;DHT22;2039;50.894;6.888;2023-09-08T04:51:07;17.60;99.90
4050;DHT22;2039;50.894;6.888;2023-09-08T04:53:40;17.60;99.90
4050;DHT22;2039;50.894;6.888;2023-09-08T04:56:06;17.60;99.90
4050;DHT22;2039;50.894;6.888;2023-09-08T04:58:31;17.60;99.90
4050;DHT22;2039;50.894;6.888;2023-09-08T05:00:57;17.60;99.90
4050;DHT22;2039;50.894;6.888;2023-09-08T05:03:23;17.60;99.90
4050;DHT22;2039;50.894;6.888;2023-09-08T05:05:48;17.60;99.90
4050;DHT22;2039;50.894;6.888;2023-09-08T05:08:14;17.70;99.90
4050;DHT22;2039;50.894;6.888;2023-09-08T05:10:45;17.60;99.90
4050;DHT22;2039;50.894;6.888;2023-09-08T05:13:11;17.60;99.90
4050;DHT22;2039;50.894;6.888;2023-09-08T05:15:37;17.60;99.90
4050;DHT22;2039;50.894;6.888;2023-09-08T05:18:04;17.70;99.90
4050;DHT22;2039;50.894;6.888;2023-09-08T05:20:30;17.60;99.90
4050;DHT22;2039;50.894;6.888;2023-09-08T05:22:56;17.60;99.90
4050;DHT22;2039;50.894;6.888;2023-09-08T05:25:21;17.60;99.90
4050;DHT22;2039;50.894;6.888;2023-09-08T05:27:47;17.60;99.90
4050;DHT22;2039;50.894;6.888;2023-09-08T05:30:14;17.60;99.90
4050;DHT22;2039;50.894;6.888;2023-09-08T05:32:40;17.60;99.90
4050;DHT22;2039;50.894;6.888;2023-09-08T05:35:06;17.60;99.90
4050;DHT22;2039;50.894;6.888;2023-09-08T05:37:31;17.70;99.90
4050;DHT22;2039;50.894;6.888;2023-09-08T05:39:57;17.70;99.90
4050;DHT22;2039;50.894;6.888;2023-09-08T05:42:23;17.70;99.90
4050;DHT22;2039;50.894;6.888;2023-09-08T05:44:48;17.70;99.90
4050;DHT22;2039;50.894;6.888;2023-09-08T05:47:14;17.70;99.90
4050;DHT22;2039;50.894;6.888;2023-09-08T05:49:40;17.70;99.90
4050;DHT22;2039;50.894;6.888;2023-09-08T05:52:05;17.60;99.90
4050;DHT22;2039;50.894;6.888;2023-09-08T05:54:31;17.70;99.90
4050;DHT22;2039;50.894;6.888;2023-09-08T05:56:57;17.70;99.90
4050;DHT22;2039;50.894;6.888;2023-09-08T05:59:23;17.80;99.90
4050;DHT22;2039;50.894;6.888;2023-09-08T06:01:48;17.70;99.90
4050;DHT22;2039;50.894;6.888;2023-09-08T06:04:14;17.80;99.90
4050;DHT22;2039;50.894;6.888;2023-09-08T06:06:40;17.80;99.90
4050;DHT22;2039;50.894;6.888;2023-09-08T06:09:06;17.90;99.90
4050;DHT22;2039;50.894;6.888;2023-09-08T06:11:33;17.90;99.90
4050;DHT22;2039;50.894;6.888;2023-09-08T06:14:02;18.00;99.90
4050;DHT22;2039;50.894;6.888;2023-09-08T06:16:28;18.00;99.90
4050;DHT22;2039;50.894;6.888;2023-09-08T06:18:53;18.10;99.90
4050;DHT22;2039;50.894;6.888;2023-09-08T06:21:19;18.10;99.90
4050;DHT22;2039;50.894;6.888;2023-09-08T06:23:51;18.20;99.90
4050;DHT22;2039;50.894;6.888;2023-09-08T06:26:16;18.50;99.90
4050;DHT22;2039;50.894;6.888;2023-09-08T06:28:42;18.60;99.90
4050;DHT22;2039;50.894;6.888;2023-09-08T06:31:12;18.90;99.90
4050;DHT22;2039;50.894;6.888;2023-09-08T06:33:40;19.00;99.90
4050;DHT22;2039;50.894;6.888;2023-09-08T06:36:06;19.10;99.90
4050;DHT22;2039;50.894;6.888;2023-09-08T06:38:32;19.30;98.00
4050;DHT22;2039;50.894;6.888;2023-09-08T06:40:58;19.30;95.20
4050;DHT22;2039;50.894;6.888;2023-09-08T06:43:27;19.50;93.40
4050;DHT22;2039;50.894;6.888;2023-09-08T06:45:53;19.60;91.60
4050;DHT22;2039;50.894;6.888;2023-09-08T06:48:21;19.60;85.90
4050;DHT22;2039;50.894;6.888;2023-09-08T06:50:47;19.70;85.30
4050;DHT22;2039;50.894;6.888;2023-09-08T06:53:13;19.80;83.80
4050;DHT22;2039;50.894;6.888;2023-09-08T06:55:38;19.90;78.20
4050;DHT22;2039;50.894;6.888;2023-09-08T06:58:04;19.90;73.70
4050;DHT22;2039;50.894;6.888;2023-09-08T07:00:39;19.90;71.20
4050;DHT22;2039;50.894;6.888;2023-09-08T07:03:05;20.00;66.10
4050;DHT22;2039;50.894;6.888;2023-09-08T07:05:31;20.00;67.20
4050;DHT22;2039;50.894;6.888;2023-09-08T07:08:00;20.10;65.00
4050;DHT22;2039;50.894;6.888;2023-09-08T07:10:25;20.10;60.10
4050;DHT22;2039;50.894;6.888;2023-09-08T07:12:51;20.20;56.80
4050;DHT22;2039;50.894;6.888;2023-09-08T07:15:17;20.20;58.50
4050;DHT22;2039;50.894;6.888;2023-09-08T07:17:42;20.30;54.00
4050;DHT22;2039;50.894;6.888;2023-09-08T07:20:08;20.30;47.30
4050;DHT22;2039;50.894;6.888;2023-09-08T07:22:34;20.30;41.20
4050;DHT22;2039;50.894;6.888;2023-09-08T07:25:00;20.30;38.70
4050;DHT22;2039;50.894;6.888;2023-09-08T07:27:26;20.30;40.10
4050;DHT22;2039;50.894;6.888;2023-09-08T07:29:51;20.40;31.20
4050;DHT22;2039;50.894;6.888;2023-09-08T07:32:18;20.40;23.80
4050;DHT22;2039;50.894;6.888;2023-09-08T07:34:44;20.40;26.20
4050;DHT22;2039;50.894;6.888;2023-09-08T07:37:10;20.50;23.80
4050;DHT22;2039;50.894;6.888;2023-09-08T07:39:36;20.50;25.50
4050;DHT22;2039;50.894;6.888;2023-09-08T07:42:02;20.60;22.80
4050;DHT22;2039;50.894;6.888;2023-09-08T07:44:28;20.60;15.50
4050;DHT22;2039;50.894;6.888;2023-09-08T07:46:54;20.70;11.50
4050;DHT22;2039;50.894;6.888;2023-09-08T07:49:22;20.70;10.70
4050;DHT22;2039;50.894;6.888;2023-09-08T07:51:48;20.80;12.50
4050;DHT22;2039;50.894;6.888;2023-09-08T07:54:14;20.80;3.00
4050;DHT22;2039;50.894;6.888;2023-09-08T07:56:39;20.90;6.90
4050;DHT22;2039;50.894;6.888;2023-09-08T07:59:08;20.90;1.00
4050;DHT22;2039;50.894;6.888;2023-09-08T08:01:34;21.00;1.00
4050;DHT22;2039;50.894;6.888;2023-09-08T08:04:00;21.10;1.00
4050;DHT22;2039;50.894;6.888;2023-09-08T08:06:28;21.10;1.00
4050;DHT22;2039;50.894;6.888;2023-09-08T08:08:54;21.20;1.00
4050;DHT22;2039;50.894;6.888;2023-09-08T08:11:19;21.20;1.00
4050;DHT22;2039;50.894;6.888;2023-09-08T08:13:46;21.30;1.00
4050;DHT22;2039;50.894;6.888;2023-09-08T08:16:12;21.40;1.00
4050;DHT22;2039;50.894;6.888;2023-09-08T08:18:37;21.50;1.00
4050;DHT22;2039;50.894;6.888;2023-09-08T08:21:03;21.60;1.00
4050;DHT22;2039;50.894;6.888;2023-09-08T08:23:30;21.60;1.00
4050;DHT22;2039;50.894;6.888;2023-09-08T08:25:56;21.70;1.00
4050;DHT22;2039;50.894;6.888;2023-09-08T08:28:22;21.80;1.00
4050;DHT22;2039;50.894;6.888;2023-09-08T08:30:47;21.80;1.00
4050;DHT22;2039;50.894;6.888;2023-09-08T08:33:14;21.90;1.00
4050;DHT22;2039;50.894;6.888;2023-09-08T08:35:40;22.00;1.00
4050;DHT22;2039;50.894;6.888;2023-09-08T08:38:05;22.10;1.00
4050;DHT22;2039;50.894;6.888;2023-09-08T08:40:31;22.20;1.00
4050;DHT22;2039;50.894;6.888;2023-09-08T08:43:00;22.20;1.00
4050;DHT22;2039;50.894;6.888;2023-09-08T08:45:26;22.30;1.00
4050;DHT22;2039;50.894;6.888;2023-09-08T08:47:53;22.40;1.00
4050;DHT22;2039;50.894;6.888;2023-09-08T08:50:19;22.40;1.00
4050;DHT22;2039;50.894;6.888;2023-09-08T08:52:46;22.60;1.00
4050;DHT22;2039;50.894;6.888;2023-09-08T08:55:12;22.60;1.00
4050;DHT22;2039;50.894;6.888;2023-09-08T08:57:40;22.80;1.00
4050;DHT22;2039;50.894;6.888;2023-09-08T09:00:11;22.80;1.00
4050;DHT22;2039;50.894;6.888;2023-09-08T09:02:42;23.00;1.00
4050;DHT22;2039;50.894;6.888;2023-09-08T09:05:11;23.00;1.00
4050;DHT22;2039;50.894;6.888;2023-09-08T09:07:38;23.20;1.00
4050;DHT22;2039;50.894;6.888;2023-09-08T09:10:05;23.30;1.00
4050;DHT22;2039;50.894;6.888;2023-09-08T09:12:32;23.40;1.00
4050;DHT22;2039;50.894;6.888;2023-09-08T09:14:59;23.50;1.00
4050;DHT22;2039;50.894;6.888;2023-09-08T09:17:25;23.60;1.00
4050;DHT22;2039;50.894;6.888;2023-09-08T09:20:12;23.70;1.00
4050;DHT22;2039;50.894;6.888;2023-09-08T09:22:38;23.80;1.00
4050;DHT22;2039;50.894;6.888;2023-09-08T09:25:07;23.90;1.00
4050;DHT22;2039;50.894;6.888;2023-09-08T09:27:33;24.00;1.00
4050;DHT22;2039;50.894;6.888;2023-09-08T09:30:07;24.10;1.00
4050;DHT22;2039;50.894;6.888;2023-09-08T09:32:34;24.20;1.00
4050;DHT22;2039;50.894;6.888;2023-09-08T09:35:00;24.20;1.00
4050;DHT22;2039;50.894;6.888;2023-09-08T09:37:26;24.40;1.00
4050;DHT22;2039;50.894;6.888;2023-09-08T09:39:53;24.60;1.00
4050;DHT22;2039;50.894;6.888;2023-09-08T09:42:20;24.60;1.00
4050;DHT22;2039;50.894;6.888;2023-09-08T09:44:51;24.70;1.00
4050;DHT22;2039;50.894;6.888;2023-09-08T09:47:17;24.90;1.00
4050;DHT22;2039;50.894;6.888;2023-09-08T09:49:46;25.00;1.00
4050;DHT22;2039;50.894;6.888;2023-09-08T09:52:13;25.00;1.00
4050;DHT22;2039;50.894;6.888;2023-09-08T09:54:41;25.20;1.00
4050;DHT22;2039;50.894;6.888;2023-09-08T09:57:11;25.40;1.00
4050;DHT22;2039;50.894;6.888;2023-09-08T09:59:40;25.50;1.00
4050;DHT22;2039;50.894;6.888;2023-09-08T10:02:08;25.70;1.00
4050;DHT22;2039;50.894;6.888;2023-09-08T10:04:38;25.80;1.00
4050;DHT22;2039;50.894;6.888;2023-09-08T10:07:05;26.00;1.00
4050;DHT22;2039;50.894;6.888;2023-09-08T10:09:31;26.20;1.00
4050;DHT22;2039;50.894;6.888;2023-09-08T10:12:00;26.30;1.00
4050;DHT22;2039;50.894;6.888;2023-09-08T10:14:28;26.50;1.00
4050;DHT22;2039;50.894;6.888;2023-09-08T10:16:59;26.70;1.00
4050;DHT22;2039;50.894;6.888;2023-09-08T10:19:25;26.70;1.00
4050;DHT22;2039;50.894;6.888;2023-09-08T10:21:55;26.80;1.00
4050;DHT22;2039;50.894;6.888;2023-09-08T10:24:28;27.00;1.00
4050;DHT22;2039;50.894;6.888;2023-09-08T10:27:10;27.10;1.00
4050;DHT22;2039;50.894;6.888;2023-09-08T10:29:36;27.20;1.00
4050;DHT22;2039;50.894;6.888;2023-09-08T10:32:07;27.40;1.00
4050;DHT22;2039;50.894;6.888;2023-09-08T10:34:35;27.60;1.00
4050;DHT22;2039;50.894;6.888;2023-09-08T10:37:01;27.60;1.00
4050;DHT22;2039;50.894;6.888;2023-09-08T10:47:12;28.00;1.00
4050;DHT22;2039;50.894;6.888;2023-09-08T10:49:39;28.00;1.00
4050;DHT22;2039;50.894;6.888;2023-09-08T10:52:08;28.10;1.00
4050;DHT22;2039;50.894;6.888;2023-09-08T10:54:44;28.20;1.00
4050;DHT22;2039;50.894;6.888;2023-09-08T10:57:17;28.30;1.00
4050;DHT22;2039;50.894;6.888;2023-09-08T10:59:55;28.40;1.00
4050;DHT22;2039;50.894;6.888;2023-09-08T11:02:49;28.50;1.00
4050;DHT22;2039;50.894;6.888;2023-09-08T11:05:20;28.80;1.00
4050;DHT22;2039;50.894;6.888;2023-09-08T11:07:48;28.90;1.00
4050;DHT22;2039;50.894;6.888;2023-09-08T11:10:18;29.20;1.00
4050;DHT22;2039;50.894;6.888;2023-09-08T11:12:43;29.20;1.00
4050;DHT22;2039;50.894;6.888;2023-09-08T11:15:09;29.40;1.00
4050;DHT22;2039;50.894;6.888;2023-09-08T11:17:36;29.60;1.00
4050;DHT22;2039;50.894;6.888;2023-09-08T11:20:05;29.90;1.00
4050;DHT22;2039;50.894;6.888;2023-09-08T11:22:37;30.00;1.00
4050;DHT22;2039;50.894;6.888;2023-09-08T11:25:03;30.10;1.00
4050;DHT22;2039;50.894;6.888;2023-09-08T11:27:32;30.20;1.00
4050;DHT22;2039;50.894;6.888;2023-09-08T11:29:58;30.30;1.00
4050;DHT22;2039;50.894;6.888;2023-09-08T11:32:24;30.30;1.00
4050;DHT22;2039;50.894;6.888;2023-09-08T11:34:50;30.50;1.00
4050;DHT22;2039;50.894;6.888;2023-09-08T11:37:18;30.60;1.00
4050;DHT22;2039;50.894;6.888;2023-09-08T11:39:45;30.40;1.00
4050;DHT22;2039;50.894;6.888;2023-09-08T11:42:15;30.30;1.00
4050;DHT22;2039;50.894;6.888;2023-09-08T11:44:41;30.50;1.00
4050;DHT22;2039;50.894;6.888;2023-09-08T11:47:09;30.60;1.00
4050;DHT22;2039;50.894;6.888;2023-09-08T11:49:39;30.40;1.00
4050;DHT22;2039;50.894;6.888;2023-09-08T11:52:06;30.20;1.00
4050;DHT22;2039;50.894;6.888;2023-09-08T11:54:33;30.40;1.00
4050;DHT22;2039;50.894;6.888;2023-09-08T11:57:04;30.60;1.00
4050;DHT22;2039;50.894;6.888;2023-09-08T11:59:32;30.60;1.00
4050;DHT22;2039;50.894;6.888;2023-09-08T12:02:04;30.90;1.00
4050;DHT22;2039;50.894;6.888;2023-09-08T12:04:35;31.10;1.00
4050;DHT22;2039;50.894;6.888;2023-09-08T12:07:00;31.00;1.00
4050;DHT22;2039;50.894;6.888;2023-09-08T12:09:26;31.30;1.00
4050;DHT22;2039;50.894;6.888;2023-09-08T12:11:55;31.70;1.00
4050;DHT22;2039;50.894;6.888;2023-09-08T12:14:20;31.50;1.00
4050;DHT22;2039;50.894;6.888;2023-09-08T12:16:46;31.40;1.00
4050;DHT22;2039;50.894;6.888;2023-09-08T12:19:31;31.60;1.00
4050;DHT22;2039;50.894;6.888;2023-09-08T12:22:00;31.50;1.00
4050;DHT22;2039;50.894;6.888;2023-09-08T12:24:49;31.50;1.00
4050;DHT22;2039;50.894;6.888;2023-09-08T12:27:18;31.70;1.00
4050;DHT22;2039;50.894;6.888;2023-09-08T12:29:55;31.30;1.00
4050;DHT22;2039;50.894;6.888;2023-09-08T12:32:22;31.10;1.00
4050;DHT22;2039;50.894;6.888;2023-09-08T12:34:54;31.00;1.00
4050;DHT22;2039;50.894;6.888;2023-09-08T12:37:24;31.00;1.00
4050;DHT22;2039;50.894;6.888;2023-09-08T12:39:50;31.20;1.00
4050;DHT22;2039;50.894;6.888;2023-09-08T12:42:21;31.30;1.00
4050;DHT22;2039;50.894;6.888;2023-09-08T12:44:51;31.50;1.00
4050;DHT22;2039;50.894;6.888;2023-09-08T12:47:17;31.20;1.00
4050;DHT22;2039;50.894;6.888;2023-09-08T12:49:42;31.10;1.00
4050;DHT22;2039;50.894;6.888;2023-09-08T12:52:08;31.00;1.00
4050;DHT22;2039;50.894;6.888;2023-09-08T12:54:35;31.10;1.00
4050;DHT22;2039;50.894;6.888;2023-09-08T12:57:01;31.00;1.00
4050;DHT22;2039;50.894;6.888;2023-09-08T12:59:27;31.20;1.00
4050;DHT22;2039;50.894;6.888;2023-09-08T13:01:53;31.20;1.00
4050;DHT22;2039;50.894;6.888;2023-09-08T13:04:22;31.40;1.00
4050;DHT22;2039;50.894;6.888;2023-09-08T13:06:48;31.40;1.00
4050;DHT22;2039;50.894;6.888;2023-09-08T13:09:15;31.30;1.00
4050;DHT22;2039;50.894;6.888;2023-09-08T13:11:41;31.40;1.00
4050;DHT22;2039;50.894;6.888;2023-09-08T13:14:10;31.70;1.00
4050;DHT22;2039;50.894;6.888;2023-09-08T13:16:35;31.60;1.00
4050;DHT22;2039;50.894;6.888;2023-09-08T13:19:01;31.70;1.00
4050;DHT22;2039;50.894;6.888;2023-09-08T13:21:27;31.80;1.00
4050;DHT22;2039;50.894;6.888;2023-09-08T13:23:52;32.00;1.00
4050;DHT22;2039;50.894;6.888;2023-09-08T13:26:18;32.00;1.00
4050;DHT22;2039;50.894;6.888;2023-09-08T13:28:44;31.70;1.00
4050;DHT22;2039;50.894;6.888;2023-09-08T13:31:09;31.70;1.00
4050;DHT22;2039;50.894;6.888;2023-09-08T13:33:35;31.40;1.00
4050;DHT22;2039;50.894;6.888;2023-09-08T13:36:01;31.30;1.00
4050;DHT22;2039;50.894;6.888;2023-09-08T13:38:26;31.50;1.00
4050;DHT22;2039;50.894;6.888;2023-09-08T13:40:52;31.70;1.00
4050;DHT22;2039;50.894;6.888;2023-09-08T13:43:18;31.70;1.00
4050;DHT22;2039;50.894;6.888;2023-09-08T13:45:44;31.60;1.00
4050;DHT22;2039;50.894;6.888;2023-09-08T13:48:12;31.50;1.00
4050;DHT22;2039;50.894;6.888;2023-09-08T13:50:38;31.80;1.00
4050;DHT22;2039;50.894;6.888;2023-09-08T13:53:07;32.00;1.00
4050;DHT22;2039;50.894;6.888;2023-09-08T13:55:32;31.90;1.00
4050;DHT22;2039;50.894;6.888;2023-09-08T13:57:58;32.10;1.00
4050;DHT22;2039;50.894;6.888;2023-09-08T14:00:24;32.10;1.00
4050;DHT22;2039;50.894;6.888;2023-09-08T14:02:50;31.70;1.00
4050;DHT22;2039;50.894;6.888;2023-09-08T14:05:16;31.70;1.00
4050;DHT22;2039;50.894;6.888;2023-09-08T14:07:41;31.50;1.00
4050;DHT22;2039;50.894;6.888;2023-09-08T14:10:07;31.50;1.00
4050;DHT22;2039;50.894;6.888;2023-09-08T14:12:33;31.60;1.00
4050;DHT22;2039;50.894;6.888;2023-09-08T14:14:59;31.70;1.00
4050;DHT22;2039;50.894;6.888;2023-09-08T14:17:25;31.70;1.00
4050;DHT22;2039;50.894;6.888;2023-09-08T14:19:51;31.70;1.00
4050;DHT22;2039;50.894;6.888;2023-09-08T14:22:19;31.50;1.00
4050;DHT22;2039;50.894;6.888;2023-09-08T14:24:45;31.50;1.00
4050;DHT22;2039;50.894;6.888;2023-09-08T14:27:10;31.50;1.00
4050;DHT22;2039;50.894;6.888;2023-09-08T14:29:36;31.50;1.00
4050;DHT22;2039;50.894;6.888;2023-09-08T14:32:02;31.70;1.00
4050;DHT22;2039;50.894;6.888;2023-09-08T14:34:28;31.80;1.00
4050;DHT22;2039;50.894;6.888;2023-09-08T14:36:56;31.60;1.00
4050;DHT22;2039;50.894;6.888;2023-09-08T14:39:22;31.60;1.00
4050;DHT22;2039;50.894;6.888;2023-09-08T14:41:51;31.70;1.00
4050;DHT22;2039;50.894;6.888;2023-09-08T14:44:19;31.50;1.00
4050;DHT22;2039;50.894;6.888;2023-09-08T14:46:46;31.50;1.00
4050;DHT22;2039;50.894;6.888;2023-09-08T14:49:12;31.70;1.00
4050;DHT22;2039;50.894;6.888;2023-09-08T14:51:40;31.70;1.00
4050;DHT22;2039;50.894;6.888;2023-09-08T14:54:08;31.60;1.00
4050;DHT22;2039;50.894;6.888;2023-09-08T14:56:34;31.50;1.00
4050;DHT22;2039;50.894;6.888;2023-09-08T14:59:00;31.40;1.00
4050;DHT22;2039;50.894;6.888;2023-09-08T15:01:26;31.40;1.00
4050;DHT22;2039;50.894;6.888;2023-09-08T15:03:51;31.40;1.00
4050;DHT22;2039;50.894;6.888;2023-09-08T15:06:17;31.50;1.00
4050;DHT22;2039;50.894;6.888;2023-09-08T15:08:43;31.70;1.00
4050;DHT22;2039;50.894;6.888;2023-09-08T15:11:11;31.70;1.00
4050;DHT22;2039;50.894;6.888;2023-09-08T15:13:37;31.50;1.00
4050;DHT22;2039;50.894;6.888;2023-09-08T15:16:03;31.50;1.00
4050;DHT22;2039;50.894;6.888;2023-09-08T15:18:29;31.50;1.00
4050;DHT22;2039;50.894;6.888;2023-09-08T15:20:55;31.40;1.00
4050;DHT22;2039;50.894;6.888;2023-09-08T15:23:21;31.40;1.00
4050;DHT22;2039;50.894;6.888;2023-09-08T15:26:08;31.70;1.00
4050;DHT22;2039;50.894;6.888;2023-09-08T15:28:34;31.80;1.00
4050;DHT22;2039;50.894;6.888;2023-09-08T15:31:00;31.90;1.00
4050;DHT22;2039;50.894;6.888;2023-09-08T15:33:31;32.00;1.00
4050;DHT22;2039;50.894;6.888;2023-09-08T15:35:57;31.90;1.00
4050;DHT22;2039;50.894;6.888;2023-09-08T15:38:23;32.00;1.00
4050;DHT22;2039;50.894;6.888;2023-09-08T15:43:36;31.90;1.00
4050;DHT22;2039;50.894;6.888;2023-09-08T15:46:02;31.70;1.00
4050;DHT22;2039;50.894;6.888;2023-09-08T15:48:28;31.70;1.00
4050;DHT22;2039;50.894;6.888;2023-09-08T15:50:54;31.80;1.00
4050;DHT22;2039;50.894;6.888;2023-09-08T15:53:19;31.70;1.00
4050;DHT22;2039;50.894;6.888;2023-09-08T15:55:45;31.70;1.00
4050;DHT22;2039;50.894;6.888;2023-09-08T15:58:20;31.70;1.00
4050;DHT22;2039;50.894;6.888;2023-09-08T16:00:46;32.00;1.00
4050;DHT22;2039;50.894;6.888;2023-09-08T16:03:11;32.30;1.00
4050;DHT22;2039;50.894;6.888;2023-09-08T16:05:37;32.50;1.00
4050;DHT22;2039;50.894;6.888;2023-09-08T16:08:03;32.50;1.00
4050;DHT22;2039;50.894;6.888;2023-09-08T16:10:28;32.40;1.00
4050;DHT22;2039;50.894;6.888;2023-09-08T16:12:54;32.50;1.00
4050;DHT22;2039;50.894;6.888;2023-09-08T16:15:23;32.40;1.00
4050;DHT22;2039;50.894;6.888;2023-09-08T16:17:48;31.90;1.00
4050;DHT22;2039;50.894;6.888;2023-09-08T16:20:14;32.00;1.00
4050;DHT22;2039;50.894;6.888;2023-09-08T16:22:40;32.30;1.00